Gaithersburg, MD (20886)

8:23 PM EDT on March 26, 2015 (GMT -0400)
KMDGAITH12 | | Change Station
CLOSE
Current Station
Personal Weather Station
Location: Gaithersburg, MD
Elevation: 467 ft
Nearby Weather Stations

Elev 467 ft 39.16 °N, 77.18 °W | Updated 5 minutes ago

Rain
Rain
58.6 °F
Feels Like 58.6 °F
N
1.0
Wind Variable Wind from NW
Gusts 2.0 mph

Today
High -- | Low -- °F
--% Chance of Precip.
Yesterday
High -- | Low -- °F
Precip. -- in
7:03 AM 7:26 PM
Waxing Crescent, 47% visible
Pressure 29.71 in
Visibility 9.0 miles
Clouds Few 1600 ft
Scattered Clouds 3300 ft
Overcast 3900 ft
Dew Point 56 °F
Humidity 91%
Rainfall 0.27 in
Snow Depth Not available.
UV 0 out of 12
Pollen 9.20 out of 12
Air Quality Not available.
Flu Activity Not available.
METAR KGAI 270015Z AUTO 31005KT 9SM FEW016 SCT033 OVC039 14/12 A2971 RMK AO1 P0001

More Conditions Fewer Conditions

Pressure 29.71 in
Visibility 9.0 miles
Clouds Few 1600 ft
Scattered Clouds 3300 ft
Overcast 3900 ft
Dew Point 56 °F
Humidity 91%
Rainfall 0.27 in
Snow Depth Not available.
UV 0 out of 12
Pollen 9.20 out of 12
Air Quality Not available.
Flu Activity Not available.
METAR KGAI 270015Z AUTO 31005KT 9SM FEW016 SCT033 OVC039 14/12 A2971 RMK AO1 P0001

More Conditions Fewer Conditions

10-Day Weather Forecast

Almanac

Astronomy

Mar. 26, 2015 Rise Set
Actual Time
Civil Twilight
Nautical Twilight
Astronomical Twilight
Moon
Length of Visible Light
Length of Day
Tomorrow will be .
, % of the Moon is Illuminated

Today's Extremes

State Highs State Lows

Community

WunderPhotos

Upload Photos

1,808,651 photos uploaded!

WunderBlogs® & News

Nearby

Air Quality

  Air Quality AQ Index Pollutant
Not available.

Snow Depth

Station Depth Elevation

Earthquake Activity

City Distance Mag. Time & Date
Minimum magnitude displayed is 2.5.

Coastal Water Temperatures

Place Temperature

Stations

Nearby Weather Stations

Station Location Temp. Windchill Dew Point Humidity Wind Precip. Elev Updated Type